EZY18ZQ EDDB-EGCC
Flight info
| Callsign | EZY18ZQ |
|---|---|
| Flight time | 1h 45m |
| Altitude | 38000 |
| Route | SUKIP4K SUKIP Y206 BUREL P203 HLZ L980 SAS DCT RKN L602 SPY DCT RAVLO Y70 OTBED |
| Aircraft | A320/M-SDE3FGHIRWY/LB1 |
Departure
| Time | 2026-05-05 19:59 |
|---|---|
| Airport | Berlin Brandenburg Airport (EDDB) |
Arrival
| Time | 2026-05-05 21:44 |
|---|---|
| Airport | Manchester Airport (EGCC) |
| Time | Latitude | Longitude | Altitude | Speed | Heading |
|---|---|---|---|---|---|
| 2026-05-05 19:25 | 52.36138 | 13.50752 | 155 ft | 0 kts | 69° |
| 2026-05-05 19:45 | 52.36133 | 13.50731 | 154 ft | 4 kts | 69° |
| 2026-05-05 19:45 | 52.36124 | 13.50690 | 154 ft | 4 kts | 69° |
| 2026-05-05 19:45 | 52.36116 | 13.50658 | 154 ft | 4 kts | 79° |
| 2026-05-05 19:45 | 52.36117 | 13.50618 | 154 ft | 4 kts | 124° |
| 2026-05-05 19:46 | 52.36129 | 13.50599 | 154 ft | 0 kts | 159° |
| 2026-05-05 19:49 | 52.36109 | 13.50612 | 154 ft | 4 kts | 159° |
| 2026-05-05 19:49 | 52.36087 | 13.50626 | 154 ft | 3 kts | 159° |
| 2026-05-05 19:50 | 52.36072 | 13.50635 | 154 ft | 2 kts | 159° |
| 2026-05-05 19:50 | 52.36062 | 13.50641 | 154 ft | 1 kts | 159° |
| 2026-05-05 19:50 | 52.36052 | 13.50648 | 154 ft | 6 kts | 159° |
| 2026-05-05 19:50 | 52.36011 | 13.50673 | 154 ft | 6 kts | 159° |
| 2026-05-05 19:51 | 52.35951 | 13.50711 | 154 ft | 12 kts | 159° |
| 2026-05-05 19:51 | 52.35889 | 13.50689 | 154 ft | 7 kts | 229° |
| 2026-05-05 19:51 | 52.35861 | 13.50634 | 154 ft | 6 kts | 215° |
| 2026-05-05 19:51 | 52.35818 | 13.50631 | 154 ft | 6 kts | 168° |
| 2026-05-05 19:52 | 52.35814 | 13.50633 | 154 ft | 0 kts | 168° |
| 2026-05-05 19:52 | 52.35796 | 13.50636 | 154 ft | 2 kts | 176° |
| 2026-05-05 19:53 | 52.35778 | 13.50624 | 154 ft | 8 kts | 216° |
| 2026-05-05 19:53 | 52.35753 | 13.50539 | 154 ft | 6 kts | 248° |
| 2026-05-05 19:53 | 52.35740 | 13.50486 | 154 ft | 5 kts | 248° |
| 2026-05-05 19:53 | 52.35730 | 13.50443 | 154 ft | 4 kts | 248° |
| 2026-05-05 19:54 | 52.35722 | 13.50410 | 154 ft | 3 kts | 248° |
| 2026-05-05 19:54 | 52.35703 | 13.50331 | 154 ft | 11 kts | 249° |
| 2026-05-05 19:54 | 52.35677 | 13.50222 | 154 ft | 9 kts | 249° |
| 2026-05-05 19:54 | 52.35654 | 13.50123 | 154 ft | 12 kts | 249° |
| 2026-05-05 19:55 | 52.35616 | 13.49962 | 154 ft | 15 kts | 248° |
| 2026-05-05 19:55 | 52.35580 | 13.49811 | 154 ft | 13 kts | 248° |
| 2026-05-05 19:55 | 52.35546 | 13.49670 | 154 ft | 16 kts | 248° |
| 2026-05-05 19:55 | 52.35502 | 13.49488 | 154 ft | 17 kts | 248° |
| 2026-05-05 19:56 | 52.35459 | 13.49308 | 154 ft | 17 kts | 249° |
| 2026-05-05 19:56 | 52.35418 | 13.49126 | 154 ft | 17 kts | 249° |
| 2026-05-05 19:56 | 52.35370 | 13.48925 | 154 ft | 21 kts | 249° |
| 2026-05-05 19:56 | 52.35319 | 13.48705 | 154 ft | 18 kts | 249° |
| 2026-05-05 19:57 | 52.35274 | 13.48520 | 154 ft | 16 kts | 239° |
| 2026-05-05 19:57 | 52.35180 | 13.48498 | 154 ft | 14 kts | 159° |
| 2026-05-05 19:57 | 52.35129 | 13.48538 | 154 ft | 11 kts | 145° |
| 2026-05-05 19:57 | 52.35078 | 13.48778 | 154 ft | 26 kts | 101° |
| 2026-05-05 19:58 | 52.35074 | 13.49079 | 154 ft | 27 kts | 72° |
| 2026-05-05 19:58 | 52.35173 | 13.49500 | 154 ft | 69 kts | 69° |
| 2026-05-05 19:58 | 52.35428 | 13.50569 | 155 ft | 129 kts | 69° |
| 2026-05-05 19:58 | 52.35790 | 13.52144 | 439 ft | 150 kts | 70° |
| 2026-05-05 19:59 | 52.35942 | 13.53823 | 1101 ft | 156 kts | 105° |
| 2026-05-05 19:59 | 52.35293 | 13.55281 | 1663 ft | 167 kts | 135° |
| 2026-05-05 19:59 | 52.34178 | 13.56137 | 1967 ft | 194 kts | 175° |
| 2026-05-05 19:59 | 52.32781 | 13.55811 | 2361 ft | 212 kts | 199° |
| 2026-05-05 20:00 | 52.31466 | 13.54500 | 2667 ft | 231 kts | 218° |
| 2026-05-05 20:00 | 52.30140 | 13.52788 | 3031 ft | 255 kts | 219° |
| 2026-05-05 20:00 | 52.28713 | 13.50935 | 3560 ft | 274 kts | 219° |
| 2026-05-05 20:00 | 52.27288 | 13.48829 | 4434 ft | 279 kts | 233° |
| 2026-05-05 20:01 | 52.26429 | 13.46009 | 5344 ft | 280 kts | 257° |
| 2026-05-05 20:01 | 52.26272 | 13.42857 | 6286 ft | 279 kts | 271° |
| 2026-05-05 20:01 | 52.26297 | 13.39678 | 7203 ft | 282 kts | 271° |
| 2026-05-05 20:01 | 52.26323 | 13.36464 | 8093 ft | 284 kts | 271° |
| 2026-05-05 20:02 | 52.26350 | 13.33219 | 8967 ft | 287 kts | 271° |
| 2026-05-05 20:02 | 52.26376 | 13.29940 | 9803 ft | 290 kts | 271° |
| 2026-05-05 20:02 | 52.26404 | 13.26562 | 10266 ft | 309 kts | 271° |
| 2026-05-05 20:02 | 52.26431 | 13.22947 | 10681 ft | 325 kts | 271° |
| 2026-05-05 20:03 | 52.26458 | 13.19208 | 11407 ft | 330 kts | 270° |
| 2026-05-05 20:03 | 52.26483 | 13.15439 | 12206 ft | 333 kts | 270° |
| 2026-05-05 20:03 | 52.26506 | 13.11652 | 12985 ft | 335 kts | 270° |
| 2026-05-05 20:03 | 52.26528 | 13.07876 | 13709 ft | 337 kts | 269° |
| 2026-05-05 20:04 | 52.26551 | 13.04030 | 14422 ft | 339 kts | 269° |
| 2026-05-05 20:04 | 52.26571 | 13.00164 | 15109 ft | 342 kts | 269° |
| 2026-05-05 20:04 | 52.26590 | 12.96270 | 15781 ft | 345 kts | 269° |
| 2026-05-05 20:04 | 52.26608 | 12.92335 | 16422 ft | 348 kts | 269° |
| 2026-05-05 20:05 | 52.26625 | 12.88376 | 17064 ft | 350 kts | 269° |
| 2026-05-05 20:05 | 52.26639 | 12.84382 | 17680 ft | 353 kts | 269° |
| 2026-05-05 20:05 | 52.26651 | 12.80360 | 18277 ft | 356 kts | 269° |
| 2026-05-05 20:05 | 52.26665 | 12.76301 | 18871 ft | 359 kts | 269° |
| 2026-05-05 20:06 | 52.26680 | 12.72209 | 19448 ft | 361 kts | 268° |
| 2026-05-05 20:06 | 52.26691 | 12.68090 | 20017 ft | 364 kts | 268° |
| 2026-05-05 20:06 | 52.26699 | 12.63945 | 20572 ft | 366 kts | 268° |
| 2026-05-05 20:06 | 52.26705 | 12.59772 | 21090 ft | 369 kts | 268° |
| 2026-05-05 20:07 | 52.26710 | 12.55568 | 21596 ft | 372 kts | 268° |
| 2026-05-05 20:07 | 52.26716 | 12.51334 | 22094 ft | 374 kts | 267° |
| 2026-05-05 20:07 | 52.26718 | 12.47077 | 22590 ft | 376 kts | 267° |
| 2026-05-05 20:07 | 52.26719 | 12.42793 | 23070 ft | 378 kts | 267° |
| 2026-05-05 20:08 | 52.26719 | 12.38488 | 23531 ft | 381 kts | 267° |
| 2026-05-05 20:08 | 52.26717 | 12.34203 | 23951 ft | 384 kts | 266° |
| 2026-05-05 20:08 | 52.26715 | 12.29827 | 24384 ft | 386 kts | 266° |
| 2026-05-05 20:08 | 52.26713 | 12.25443 | 24817 ft | 388 kts | 266° |
| 2026-05-05 20:09 | 52.26711 | 12.21032 | 25241 ft | 389 kts | 266° |
| 2026-05-05 20:09 | 52.26706 | 12.16589 | 25656 ft | 391 kts | 266° |
| 2026-05-05 20:09 | 52.26698 | 12.12141 | 26056 ft | 393 kts | 266° |
| 2026-05-05 20:09 | 52.26688 | 12.07675 | 26446 ft | 395 kts | 266° |
| 2026-05-05 20:10 | 52.26674 | 12.03174 | 26831 ft | 396 kts | 266° |
| 2026-05-05 20:10 | 52.26654 | 11.98654 | 27234 ft | 399 kts | 266° |
| 2026-05-05 20:10 | 52.26634 | 11.94116 | 27628 ft | 400 kts | 266° |
| 2026-05-05 20:10 | 52.26615 | 11.89565 | 28013 ft | 401 kts | 266° |
| 2026-05-05 20:11 | 52.26596 | 11.85003 | 28373 ft | 403 kts | 266° |
| 2026-05-05 20:11 | 52.26579 | 11.80424 | 28716 ft | 404 kts | 266° |
| 2026-05-05 20:11 | 52.26558 | 11.75821 | 29067 ft | 405 kts | 266° |
| 2026-05-05 20:11 | 52.26533 | 11.71207 | 29407 ft | 406 kts | 266° |
| 2026-05-05 20:12 | 52.26505 | 11.66595 | 29737 ft | 407 kts | 265° |
| 2026-05-05 20:12 | 52.26476 | 11.61961 | 30051 ft | 408 kts | 265° |
| 2026-05-05 20:12 | 52.26444 | 11.57320 | 30352 ft | 410 kts | 265° |
| 2026-05-05 20:12 | 52.26409 | 11.52661 | 30619 ft | 411 kts | 265° |
| 2026-05-05 20:13 | 52.26373 | 11.48043 | 30891 ft | 413 kts | 265° |
| 2026-05-05 20:13 | 52.26335 | 11.43346 | 31149 ft | 415 kts | 265° |
| 2026-05-05 20:13 | 52.26295 | 11.38634 | 31468 ft | 414 kts | 265° |
| 2026-05-05 20:13 | 52.26255 | 11.33941 | 31849 ft | 413 kts | 265° |
| 2026-05-05 20:14 | 52.26215 | 11.29262 | 32212 ft | 412 kts | 265° |
| 2026-05-05 20:14 | 52.26175 | 11.24599 | 32577 ft | 410 kts | 265° |
| 2026-05-05 20:14 | 52.26130 | 11.19954 | 32907 ft | 409 kts | 265° |
| 2026-05-05 20:14 | 52.26081 | 11.15316 | 33236 ft | 409 kts | 265° |
| 2026-05-05 20:15 | 52.26031 | 11.10683 | 33584 ft | 407 kts | 265° |
| 2026-05-05 20:15 | 52.25980 | 11.06075 | 33916 ft | 406 kts | 264° |
| 2026-05-05 20:15 | 52.25926 | 11.01472 | 34231 ft | 405 kts | 264° |
| 2026-05-05 20:15 | 52.25870 | 10.96866 | 34528 ft | 405 kts | 264° |
| 2026-05-05 20:16 | 52.25814 | 10.92273 | 34773 ft | 405 kts | 264° |
| 2026-05-05 20:16 | 52.25757 | 10.87675 | 35025 ft | 405 kts | 264° |
| 2026-05-05 20:16 | 52.25698 | 10.83072 | 35258 ft | 406 kts | 264° |
| 2026-05-05 20:16 | 52.25636 | 10.78519 | 35490 ft | 406 kts | 264° |
| 2026-05-05 20:17 | 52.25574 | 10.73910 | 35715 ft | 406 kts | 264° |
| 2026-05-05 20:17 | 52.25510 | 10.69298 | 35922 ft | 407 kts | 264° |
| 2026-05-05 20:17 | 52.25444 | 10.64677 | 36108 ft | 408 kts | 264° |
| 2026-05-05 20:17 | 52.25374 | 10.60030 | 36317 ft | 408 kts | 264° |
| 2026-05-05 20:18 | 52.25303 | 10.55391 | 36508 ft | 409 kts | 264° |
| 2026-05-05 20:18 | 52.25227 | 10.50745 | 36687 ft | 410 kts | 264° |
| 2026-05-05 20:18 | 52.25150 | 10.46090 | 36867 ft | 410 kts | 264° |
| 2026-05-05 20:18 | 52.25068 | 10.41439 | 37066 ft | 410 kts | 264° |
| 2026-05-05 20:19 | 52.24988 | 10.36791 | 37271 ft | 410 kts | 264° |
| 2026-05-05 20:19 | 52.24907 | 10.32148 | 37459 ft | 409 kts | 264° |
| 2026-05-05 20:19 | 52.24825 | 10.27506 | 37635 ft | 409 kts | 264° |
| 2026-05-05 20:19 | 52.24741 | 10.22858 | 37803 ft | 410 kts | 264° |
| 2026-05-05 20:20 | 52.24658 | 10.18271 | 37854 ft | 410 kts | 264° |
| 2026-05-05 20:20 | 52.24490 | 10.08997 | 37856 ft | 408 kts | 264° |
| 2026-05-05 20:21 | 52.24306 | 9.99733 | 37861 ft | 407 kts | 264° |
| 2026-05-05 20:21 | 52.24116 | 9.90512 | 37860 ft | 406 kts | 264° |
| 2026-05-05 20:22 | 52.23922 | 9.81300 | 37860 ft | 405 kts | 264° |
| 2026-05-05 20:22 | 52.23717 | 9.72109 | 37856 ft | 405 kts | 264° |
| 2026-05-05 20:23 | 52.23503 | 9.62929 | 37857 ft | 405 kts | 264° |
| 2026-05-05 20:23 | 52.23281 | 9.53804 | 37858 ft | 405 kts | 264° |
| 2026-05-05 20:24 | 52.23058 | 9.44628 | 37857 ft | 405 kts | 264° |
| 2026-05-05 20:24 | 52.22825 | 9.35450 | 37856 ft | 405 kts | 264° |
| 2026-05-05 20:25 | 52.22586 | 9.26281 | 37854 ft | 405 kts | 264° |
| 2026-05-05 20:25 | 52.22341 | 9.17103 | 37855 ft | 405 kts | 264° |
| 2026-05-05 20:26 | 52.22091 | 9.07914 | 37858 ft | 405 kts | 264° |
| 2026-05-05 20:26 | 52.21831 | 8.98742 | 37861 ft | 405 kts | 264° |
| 2026-05-05 20:27 | 52.21561 | 8.89555 | 37862 ft | 405 kts | 264° |
| 2026-05-05 20:27 | 52.21289 | 8.80367 | 37856 ft | 405 kts | 263° |
| 2026-05-05 20:28 | 52.21004 | 8.71242 | 37854 ft | 406 kts | 263° |
| 2026-05-05 20:28 | 52.20711 | 8.62052 | 37850 ft | 406 kts | 263° |
| 2026-05-05 20:29 | 52.20416 | 8.52836 | 37850 ft | 407 kts | 263° |
| 2026-05-05 20:29 | 52.20112 | 8.43618 | 37848 ft | 407 kts | 263° |
| 2026-05-05 20:30 | 52.19801 | 8.34389 | 37847 ft | 408 kts | 263° |
| 2026-05-05 20:30 | 52.19483 | 8.25145 | 37846 ft | 408 kts | 263° |
| 2026-05-05 20:31 | 52.19153 | 8.15906 | 37847 ft | 409 kts | 263° |
| 2026-05-05 20:31 | 52.18869 | 8.08223 | 37849 ft | 409 kts | 263° |
| 2026-05-05 20:32 | 52.18524 | 7.98953 | 37851 ft | 410 kts | 263° |
| 2026-05-05 20:32 | 52.18180 | 7.89687 | 37854 ft | 410 kts | 263° |
| 2026-05-05 20:33 | 52.17828 | 7.80410 | 37858 ft | 410 kts | 263° |
| 2026-05-05 20:33 | 52.17467 | 7.71136 | 37858 ft | 410 kts | 263° |
| 2026-05-05 20:34 | 52.17094 | 7.61871 | 37867 ft | 410 kts | 263° |
| 2026-05-05 20:34 | 52.16716 | 7.52608 | 37870 ft | 410 kts | 263° |
| 2026-05-05 20:35 | 52.16333 | 7.43407 | 37867 ft | 409 kts | 263° |
| 2026-05-05 20:35 | 52.15937 | 7.34169 | 37869 ft | 409 kts | 263° |
| 2026-05-05 20:36 | 52.15535 | 7.24859 | 37867 ft | 410 kts | 263° |
| 2026-05-05 20:36 | 52.15134 | 7.15654 | 37870 ft | 410 kts | 262° |
| 2026-05-05 20:37 | 52.14712 | 7.06387 | 37874 ft | 410 kts | 262° |
| 2026-05-05 20:37 | 52.14288 | 6.97129 | 37878 ft | 410 kts | 262° |
| 2026-05-05 20:38 | 52.13865 | 6.87859 | 37867 ft | 410 kts | 262° |
| 2026-05-05 20:38 | 52.13589 | 6.78631 | 37866 ft | 413 kts | 270° |
| 2026-05-05 20:39 | 52.14865 | 6.69449 | 37885 ft | 422 kts | 286° |
| 2026-05-05 20:39 | 52.16882 | 6.60463 | 37883 ft | 423 kts | 286° |
| 2026-05-05 20:40 | 52.18875 | 6.51434 | 37880 ft | 423 kts | 285° |
| 2026-05-05 20:40 | 52.20859 | 6.42391 | 37886 ft | 424 kts | 285° |
| 2026-05-05 20:41 | 52.22839 | 6.33333 | 37890 ft | 424 kts | 285° |
| 2026-05-05 20:41 | 52.24817 | 6.24257 | 37892 ft | 425 kts | 285° |
| 2026-05-05 20:42 | 52.26781 | 6.15225 | 37894 ft | 425 kts | 285° |
| 2026-05-05 20:42 | 52.28762 | 6.06061 | 37899 ft | 425 kts | 285° |
| 2026-05-05 20:43 | 52.30714 | 5.96993 | 37901 ft | 426 kts | 285° |
| 2026-05-05 20:43 | 52.32675 | 5.87874 | 37904 ft | 425 kts | 285° |
| 2026-05-05 20:44 | 52.34624 | 5.78738 | 37909 ft | 425 kts | 285° |
| 2026-05-05 20:44 | 52.36556 | 5.69600 | 37914 ft | 425 kts | 285° |
| 2026-05-05 20:45 | 52.39452 | 5.55865 | 37919 ft | 425 kts | 285° |
| 2026-05-05 20:45 | 52.41374 | 5.46719 | 37928 ft | 425 kts | 285° |
| 2026-05-05 20:46 | 52.43293 | 5.37568 | 37932 ft | 425 kts | 285° |
| 2026-05-05 20:46 | 52.45199 | 5.28407 | 37936 ft | 424 kts | 285° |
| 2026-05-05 20:47 | 52.47094 | 5.19251 | 37933 ft | 424 kts | 285° |
| 2026-05-05 20:47 | 52.48988 | 5.10079 | 37935 ft | 424 kts | 285° |
| 2026-05-05 20:48 | 52.50858 | 5.00969 | 37944 ft | 423 kts | 285° |
| 2026-05-05 20:48 | 52.52721 | 4.91801 | 37944 ft | 423 kts | 285° |
| 2026-05-05 20:49 | 52.54594 | 4.82646 | 37946 ft | 423 kts | 286° |
| 2026-05-05 20:49 | 52.56651 | 4.73573 | 37944 ft | 424 kts | 288° |
| 2026-05-05 20:50 | 52.58790 | 4.64532 | 37946 ft | 424 kts | 288° |
| 2026-05-05 20:50 | 52.60885 | 4.55462 | 37948 ft | 424 kts | 287° |
| 2026-05-05 20:51 | 52.62942 | 4.46352 | 37952 ft | 424 kts | 287° |
| 2026-05-05 20:51 | 52.64986 | 4.37222 | 37959 ft | 424 kts | 287° |
| 2026-05-05 20:52 | 52.67025 | 4.28103 | 37947 ft | 424 kts | 287° |
| 2026-05-05 20:52 | 52.69063 | 4.18977 | 37955 ft | 424 kts | 287° |
| 2026-05-05 20:53 | 52.71095 | 4.09887 | 37948 ft | 425 kts | 287° |
| 2026-05-05 20:53 | 52.73120 | 4.00743 | 37956 ft | 424 kts | 287° |
| 2026-05-05 20:54 | 52.75134 | 3.91572 | 37962 ft | 425 kts | 287° |
| 2026-05-05 20:54 | 52.77145 | 3.82399 | 37961 ft | 425 kts | 287° |
| 2026-05-05 20:55 | 52.79153 | 3.73213 | 37963 ft | 425 kts | 287° |
| 2026-05-05 20:55 | 52.81149 | 3.64026 | 37960 ft | 424 kts | 287° |
| 2026-05-05 20:56 | 52.83129 | 3.54887 | 37979 ft | 425 kts | 287° |
| 2026-05-05 20:56 | 52.85119 | 3.45682 | 37983 ft | 425 kts | 287° |
| 2026-05-05 20:57 | 52.87102 | 3.36459 | 37986 ft | 425 kts | 286° |
| 2026-05-05 20:57 | 52.89071 | 3.27247 | 37984 ft | 424 kts | 286° |
| 2026-05-05 20:58 | 52.91028 | 3.18020 | 37983 ft | 424 kts | 286° |
| 2026-05-05 20:58 | 52.92524 | 3.08639 | 37980 ft | 421 kts | 279° |
| 2026-05-05 20:59 | 52.93774 | 2.99163 | 37963 ft | 421 kts | 279° |
| 2026-05-05 20:59 | 52.95026 | 2.89691 | 37978 ft | 421 kts | 279° |
| 2026-05-05 21:00 | 52.96261 | 2.80264 | 37979 ft | 420 kts | 279° |
| 2026-05-05 21:00 | 52.97493 | 2.70775 | 37979 ft | 421 kts | 279° |
| 2026-05-05 21:01 | 52.98710 | 2.61274 | 37978 ft | 421 kts | 279° |
| 2026-05-05 21:01 | 52.99925 | 2.51759 | 37978 ft | 421 kts | 279° |
| 2026-05-05 21:02 | 53.01138 | 2.42238 | 37979 ft | 421 kts | 279° |
| 2026-05-05 21:02 | 53.02343 | 2.32696 | 37982 ft | 421 kts | 279° |
| 2026-05-05 21:03 | 53.03528 | 2.23234 | 37989 ft | 421 kts | 279° |
| 2026-05-05 21:03 | 53.04710 | 2.13681 | 37991 ft | 421 kts | 279° |
| 2026-05-05 21:04 | 53.05891 | 2.04133 | 37993 ft | 422 kts | 279° |
| 2026-05-05 21:04 | 53.07066 | 1.94579 | 37996 ft | 422 kts | 279° |
| 2026-05-05 21:05 | 53.08231 | 1.85007 | 37997 ft | 422 kts | 279° |
| 2026-05-05 21:05 | 53.09398 | 1.75425 | 37997 ft | 423 kts | 279° |
| 2026-05-05 21:06 | 53.10551 | 1.65837 | 37998 ft | 423 kts | 279° |
| 2026-05-05 21:06 | 53.11686 | 1.56286 | 38000 ft | 423 kts | 278° |
| 2026-05-05 21:07 | 53.12810 | 1.46668 | 37999 ft | 423 kts | 278° |
| 2026-05-05 21:07 | 53.13936 | 1.37055 | 38000 ft | 423 kts | 278° |
| 2026-05-05 21:08 | 53.15066 | 1.27426 | 38006 ft | 423 kts | 278° |
| 2026-05-05 21:08 | 53.16183 | 1.17806 | 38011 ft | 423 kts | 278° |
| 2026-05-05 21:09 | 53.17286 | 1.08157 | 38015 ft | 423 kts | 278° |
| 2026-05-05 21:09 | 53.18382 | 0.98511 | 38018 ft | 423 kts | 278° |
| 2026-05-05 21:10 | 53.19476 | 0.88856 | 37917 ft | 424 kts | 278° |
| 2026-05-05 21:10 | 53.20019 | 0.84030 | 37666 ft | 423 kts | 278° |
| 2026-05-05 21:10 | 53.20562 | 0.79204 | 37418 ft | 422 kts | 278° |
| 2026-05-05 21:11 | 53.21095 | 0.74450 | 36941 ft | 422 kts | 278° |
| 2026-05-05 21:11 | 53.21628 | 0.69642 | 36227 ft | 424 kts | 278° |
| 2026-05-05 21:11 | 53.22158 | 0.64796 | 35672 ft | 421 kts | 278° |
| 2026-05-05 21:11 | 53.22684 | 0.60007 | 35170 ft | 418 kts | 278° |
| 2026-05-05 21:12 | 53.23205 | 0.55251 | 34659 ft | 415 kts | 278° |
| 2026-05-05 21:12 | 53.23719 | 0.50526 | 34132 ft | 413 kts | 277° |
| 2026-05-05 21:12 | 53.24229 | 0.45830 | 33614 ft | 410 kts | 277° |
| 2026-05-05 21:12 | 53.24737 | 0.41153 | 33102 ft | 407 kts | 277° |
| 2026-05-05 21:13 | 53.25244 | 0.36510 | 32588 ft | 405 kts | 278° |
| 2026-05-05 21:13 | 53.25747 | 0.31898 | 32076 ft | 402 kts | 277° |
| 2026-05-05 21:13 | 53.26243 | 0.27314 | 31581 ft | 400 kts | 277° |
| 2026-05-05 21:13 | 53.26730 | 0.22772 | 31093 ft | 396 kts | 277° |
| 2026-05-05 21:14 | 53.27210 | 0.18250 | 30607 ft | 393 kts | 277° |
| 2026-05-05 21:14 | 53.27685 | 0.13764 | 30129 ft | 390 kts | 277° |
| 2026-05-05 21:14 | 53.28155 | 0.09321 | 29661 ft | 386 kts | 277° |
| 2026-05-05 21:14 | 53.28652 | 0.04934 | 29208 ft | 384 kts | 282° |
| 2026-05-05 21:15 | 53.29531 | 0.00754 | 28986 ft | 381 kts | 291° |
| 2026-05-05 21:15 | 53.30687 | -0.03278 | 28243 ft | 387 kts | 293° |
| 2026-05-05 21:15 | 53.31844 | -0.07239 | 27896 ft | 380 kts | 293° |
| 2026-05-05 21:15 | 53.32999 | -0.11176 | 27462 ft | 375 kts | 293° |
| 2026-05-05 21:16 | 53.34146 | -0.15075 | 27052 ft | 371 kts | 293° |
| 2026-05-05 21:16 | 53.35272 | -0.18920 | 26641 ft | 366 kts | 293° |
| 2026-05-05 21:16 | 53.36385 | -0.22739 | 26233 ft | 363 kts | 293° |
| 2026-05-05 21:16 | 53.37485 | -0.26527 | 25833 ft | 360 kts | 293° |
| 2026-05-05 21:17 | 53.38572 | -0.30277 | 25428 ft | 357 kts | 293° |
| 2026-05-05 21:17 | 53.39650 | -0.34003 | 25026 ft | 354 kts | 293° |
| 2026-05-05 21:17 | 53.40719 | -0.37708 | 24624 ft | 352 kts | 293° |
| 2026-05-05 21:17 | 53.41777 | -0.41387 | 24236 ft | 350 kts | 293° |
| 2026-05-05 21:18 | 53.42832 | -0.45053 | 23834 ft | 347 kts | 293° |
| 2026-05-05 21:18 | 53.43878 | -0.48688 | 23454 ft | 345 kts | 293° |
| 2026-05-05 21:18 | 53.44917 | -0.52306 | 23055 ft | 343 kts | 293° |
| 2026-05-05 21:18 | 53.45949 | -0.55894 | 22668 ft | 341 kts | 293° |
| 2026-05-05 21:19 | 53.46630 | -0.58270 | 22415 ft | 340 kts | 293° |
| 2026-05-05 21:19 | 53.47649 | -0.61833 | 22027 ft | 338 kts | 293° |
| 2026-05-05 21:19 | 53.48661 | -0.65376 | 21648 ft | 335 kts | 293° |
| 2026-05-05 21:19 | 53.49666 | -0.68893 | 21270 ft | 333 kts | 293° |
| 2026-05-05 21:20 | 53.50662 | -0.72388 | 20892 ft | 331 kts | 294° |
| 2026-05-05 21:20 | 53.51656 | -0.75879 | 20519 ft | 329 kts | 294° |
| 2026-05-05 21:20 | 53.52639 | -0.79337 | 20150 ft | 327 kts | 293° |
| 2026-05-05 21:20 | 53.53616 | -0.82781 | 19781 ft | 325 kts | 294° |
| 2026-05-05 21:21 | 53.54584 | -0.86204 | 19413 ft | 323 kts | 294° |
| 2026-05-05 21:21 | 53.55534 | -0.89569 | 19046 ft | 322 kts | 294° |
| 2026-05-05 21:21 | 53.56501 | -0.93005 | 18678 ft | 320 kts | 293° |
| 2026-05-05 21:21 | 53.57433 | -0.96334 | 18326 ft | 318 kts | 294° |
| 2026-05-05 21:22 | 53.58374 | -0.99700 | 17964 ft | 317 kts | 294° |
| 2026-05-05 21:22 | 53.59312 | -1.03042 | 17604 ft | 315 kts | 294° |
| 2026-05-05 21:22 | 53.60245 | -1.06361 | 17247 ft | 313 kts | 294° |
| 2026-05-05 21:22 | 53.61002 | -1.09780 | 16920 ft | 309 kts | 282° |
| 2026-05-05 21:23 | 53.61478 | -1.13309 | 16745 ft | 309 kts | 282° |
| 2026-05-05 21:23 | 53.61955 | -1.16823 | 16542 ft | 308 kts | 282° |
| 2026-05-05 21:23 | 53.62439 | -1.20337 | 16337 ft | 307 kts | 282° |
| 2026-05-05 21:23 | 53.62922 | -1.23831 | 16138 ft | 306 kts | 282° |
| 2026-05-05 21:24 | 53.63402 | -1.27326 | 15933 ft | 305 kts | 282° |
| 2026-05-05 21:24 | 53.63877 | -1.30805 | 15731 ft | 304 kts | 282° |
| 2026-05-05 21:24 | 53.64349 | -1.34274 | 15529 ft | 303 kts | 282° |
| 2026-05-05 21:24 | 53.64818 | -1.37732 | 15329 ft | 303 kts | 282° |
| 2026-05-05 21:25 | 53.65283 | -1.41180 | 15118 ft | 301 kts | 282° |
| 2026-05-05 21:25 | 53.65745 | -1.44613 | 14927 ft | 300 kts | 282° |
| 2026-05-05 21:25 | 53.66206 | -1.48037 | 14730 ft | 299 kts | 282° |
| 2026-05-05 21:25 | 53.66665 | -1.51464 | 14529 ft | 298 kts | 282° |
| 2026-05-05 21:26 | 53.67111 | -1.54830 | 14333 ft | 297 kts | 282° |
| 2026-05-05 21:26 | 53.67562 | -1.58237 | 14129 ft | 297 kts | 282° |
| 2026-05-05 21:26 | 53.68015 | -1.61637 | 13940 ft | 296 kts | 282° |
| 2026-05-05 21:26 | 53.68466 | -1.65019 | 13744 ft | 295 kts | 282° |
| 2026-05-05 21:27 | 53.68916 | -1.68392 | 13546 ft | 294 kts | 282° |
| 2026-05-05 21:27 | 53.69363 | -1.71762 | 13350 ft | 294 kts | 282° |
| 2026-05-05 21:27 | 53.69804 | -1.75118 | 13153 ft | 293 kts | 282° |
| 2026-05-05 21:27 | 53.70243 | -1.78467 | 12960 ft | 292 kts | 282° |
| 2026-05-05 21:28 | 53.70680 | -1.81809 | 12762 ft | 291 kts | 283° |
| 2026-05-05 21:28 | 53.71115 | -1.85139 | 12569 ft | 291 kts | 282° |
| 2026-05-05 21:28 | 53.71550 | -1.88476 | 12371 ft | 290 kts | 283° |
| 2026-05-05 21:28 | 53.71985 | -1.91804 | 12178 ft | 289 kts | 283° |
| 2026-05-05 21:29 | 53.72417 | -1.95114 | 11981 ft | 288 kts | 283° |
| 2026-05-05 21:29 | 53.72845 | -1.98423 | 11792 ft | 288 kts | 283° |
| 2026-05-05 21:29 | 53.73263 | -2.01684 | 11596 ft | 287 kts | 283° |
| 2026-05-05 21:29 | 53.73687 | -2.04981 | 11399 ft | 287 kts | 283° |
| 2026-05-05 21:30 | 53.74109 | -2.08270 | 11210 ft | 286 kts | 283° |
| 2026-05-05 21:30 | 53.74322 | -2.11602 | 11015 ft | 285 kts | 270° |
| 2026-05-05 21:30 | 53.74196 | -2.14933 | 10824 ft | 284 kts | 267° |
| 2026-05-05 21:30 | 53.74062 | -2.18270 | 10635 ft | 284 kts | 268° |
| 2026-05-05 21:31 | 53.73874 | -2.21591 | 10221 ft | 288 kts | 259° |
| 2026-05-05 21:31 | 53.73051 | -2.24674 | 9542 ft | 290 kts | 234° |
| 2026-05-05 21:31 | 53.71662 | -2.27144 | 8832 ft | 290 kts | 226° |
| 2026-05-05 21:31 | 53.70220 | -2.29506 | 8240 ft | 286 kts | 225° |
| 2026-05-05 21:32 | 53.68829 | -2.31760 | 7921 ft | 271 kts | 225° |
| 2026-05-05 21:32 | 53.67443 | -2.33873 | 7326 ft | 268 kts | 219° |
| 2026-05-05 21:32 | 53.66059 | -2.36064 | 6441 ft | 275 kts | 231° |
| 2026-05-05 21:32 | 53.64792 | -2.38507 | 5717 ft | 276 kts | 230° |
| 2026-05-05 21:33 | 53.63525 | -2.40924 | 5197 ft | 273 kts | 230° |
| 2026-05-05 21:33 | 53.62256 | -2.43332 | 5189 ft | 277 kts | 229° |
| 2026-05-05 21:33 | 53.60938 | -2.45665 | 5203 ft | 279 kts | 226° |
| 2026-05-05 21:33 | 53.59435 | -2.47764 | 5204 ft | 281 kts | 217° |
| 2026-05-05 21:34 | 53.57850 | -2.49683 | 5204 ft | 280 kts | 216° |
| 2026-05-05 21:34 | 53.56259 | -2.51587 | 5205 ft | 280 kts | 216° |
| 2026-05-05 21:34 | 53.54672 | -2.53482 | 5206 ft | 279 kts | 216° |
| 2026-05-05 21:34 | 53.53086 | -2.55371 | 5205 ft | 279 kts | 216° |
| 2026-05-05 21:35 | 53.51405 | -2.56785 | 5201 ft | 264 kts | 194° |
| 2026-05-05 21:35 | 53.49570 | -2.57394 | 5212 ft | 276 kts | 193° |
| 2026-05-05 21:35 | 53.47680 | -2.58071 | 5210 ft | 274 kts | 191° |
| 2026-05-05 21:35 | 53.45871 | -2.58652 | 5210 ft | 256 kts | 190° |
| 2026-05-05 21:36 | 53.44177 | -2.59192 | 5208 ft | 240 kts | 190° |
| 2026-05-05 21:36 | 53.42557 | -2.59705 | 5211 ft | 237 kts | 190° |
| 2026-05-05 21:36 | 53.40943 | -2.60220 | 5215 ft | 236 kts | 190° |
| 2026-05-05 21:36 | 53.39331 | -2.60729 | 5214 ft | 236 kts | 190° |
| 2026-05-05 21:37 | 53.37713 | -2.61161 | 5212 ft | 235 kts | 179° |
| 2026-05-05 21:37 | 53.36133 | -2.60647 | 5214 ft | 232 kts | 154° |
| 2026-05-05 21:37 | 53.34652 | -2.59581 | 5215 ft | 232 kts | 154° |
| 2026-05-05 21:37 | 53.33165 | -2.58501 | 5076 ft | 234 kts | 154° |
| 2026-05-05 21:38 | 53.31707 | -2.57444 | 4932 ft | 222 kts | 154° |
| 2026-05-05 21:38 | 53.30334 | -2.56460 | 4796 ft | 210 kts | 154° |
| 2026-05-05 21:38 | 53.28996 | -2.55503 | 4485 ft | 208 kts | 153° |
| 2026-05-05 21:38 | 53.27670 | -2.54555 | 4188 ft | 208 kts | 153° |
| 2026-05-05 21:39 | 53.26360 | -2.53565 | 3969 ft | 204 kts | 144° |
| 2026-05-05 21:39 | 53.25416 | -2.51930 | 3582 ft | 199 kts | 111° |
| 2026-05-05 21:39 | 53.25150 | -2.49707 | 3288 ft | 188 kts | 80° |
| 2026-05-05 21:39 | 53.25554 | -2.47749 | 3054 ft | 173 kts | 53° |
| 2026-05-05 21:40 | 53.26268 | -2.46245 | 2835 ft | 160 kts | 49° |
| 2026-05-05 21:40 | 53.26945 | -2.44859 | 2638 ft | 148 kts | 50° |
| 2026-05-05 21:40 | 53.27569 | -2.43579 | 2460 ft | 138 kts | 50° |
| 2026-05-05 21:40 | 53.28159 | -2.42366 | 2279 ft | 133 kts | 50° |
| 2026-05-05 21:41 | 53.28737 | -2.41180 | 2099 ft | 131 kts | 51° |
| 2026-05-05 21:41 | 53.29308 | -2.40007 | 1930 ft | 130 kts | 50° |
| 2026-05-05 21:41 | 53.29877 | -2.38838 | 1750 ft | 129 kts | 51° |
| 2026-05-05 21:41 | 53.30441 | -2.37676 | 1586 ft | 129 kts | 51° |
| 2026-05-05 21:42 | 53.31010 | -2.36504 | 1419 ft | 131 kts | 51° |
| 2026-05-05 21:42 | 53.31583 | -2.35324 | 1241 ft | 130 kts | 51° |
| 2026-05-05 21:42 | 53.32153 | -2.34149 | 1068 ft | 130 kts | 51° |
| 2026-05-05 21:42 | 53.32723 | -2.32971 | 895 ft | 130 kts | 51° |
| 2026-05-05 21:43 | 53.33295 | -2.31794 | 725 ft | 130 kts | 51° |
| 2026-05-05 21:43 | 53.33865 | -2.30617 | 555 ft | 130 kts | 51° |
| 2026-05-05 21:43 | 53.34435 | -2.29439 | 377 ft | 130 kts | 51° |
| 2026-05-05 21:43 | 53.34994 | -2.28276 | 249 ft | 129 kts | 52° |
| 2026-05-05 21:44 | 53.35459 | -2.27307 | 248 ft | 68 kts | 50° |
| 2026-05-05 21:44 | 53.35717 | -2.26782 | 268 ft | 52 kts | 51° |
| 2026-05-05 21:44 | 53.35929 | -2.26340 | 264 ft | 47 kts | 50° |
| 2026-05-05 21:44 | 53.36062 | -2.26138 | 257 ft | 13 kts | 327° |
| 2026-05-05 21:45 | 53.36131 | -2.26243 | 256 ft | 6 kts | 311° |
| 2026-05-05 21:45 | 53.36138 | -2.26306 | 255 ft | 5 kts | 265° |
| 2026-05-05 21:45 | 53.36124 | -2.26356 | 255 ft | 4 kts | 236° |
| 2026-05-05 21:45 | 53.36093 | -2.26420 | 256 ft | 11 kts | 231° |
| 2026-05-05 21:46 | 53.36050 | -2.26510 | 256 ft | 9 kts | 231° |
| 2026-05-05 21:46 | 53.36012 | -2.26588 | 256 ft | 8 kts | 231° |
| 2026-05-05 21:46 | 53.35979 | -2.26656 | 256 ft | 7 kts | 231° |
| 2026-05-05 21:46 | 53.35937 | -2.26745 | 256 ft | 8 kts | 231° |
| 2026-05-05 21:47 | 53.35906 | -2.26819 | 256 ft | 8 kts | 237° |
| 2026-05-05 21:47 | 53.35873 | -2.26896 | 256 ft | 9 kts | 232° |
| 2026-05-05 21:47 | 53.35830 | -2.27001 | 256 ft | 11 kts | 240° |
| 2026-05-05 21:47 | 53.35792 | -2.27106 | 255 ft | 10 kts | 234° |
| 2026-05-05 21:48 | 53.35751 | -2.27195 | 255 ft | 11 kts | 247° |
| 2026-05-05 21:48 | 53.35805 | -2.27311 | 255 ft | 14 kts | 348° |
| 2026-05-05 21:48 | 53.35904 | -2.27316 | 255 ft | 15 kts | 359° |
| 2026-05-05 21:48 | 53.35945 | -2.27317 | 255 ft | 1 kts | 358° |
| 2026-05-05 21:49 | 53.35953 | -2.27318 | 255 ft | 1 kts | 358° |